LEBZGEML

Guest
Details From LEBZ - Talavera La Real
To GEML - MELILLA
Flight Number -
Tags generated
Created
Modified
Stats Distance 309 nm / 572 km
Max Altitude 35,000 ft / 10,668 m
Waypoints 5
Social Downloads 0
Likes 0
Share VATSIM

Download

Looking for another format? Having issues loading an existing format? Contact us
Advertisement - Login to hide

Notes

Basic altitude profile: - Ascent Rate: 2500ft/min - Ascent Speed: 250kts - Cruise Altitude: 35000ft - Cruise Speed: 420kts - Descent Rate: 1500ft/min - Descent Speed: 250kts Options: - Use NATs: yes - Use PACOTS: yes - Use low airways: yes - Use high airways: no

Route

LEBZ SVL A44 MAR B42 PIMOS GEML

ID Type Via Altitude Latitude Longitude Leg Dist Tot Dist Heading (true) Name
O LEBZ APT - 0 ft / 0 m 38.89127˚ -6.82126˚ - 0 nm - Talavera La Real
SVL VOR - 35,000 ft / 10,668 m 37.42758˚ -5.76222˚ 101 nm 101 nm 150° / 151° SEVILLA VOR-DME
MAR VOR A44 (AWY-LO) 23,500 ft / 7,163 m 37.05532˚ -4.93989˚ 45 nm 146 nm 119° / 120° MARTIN VOR-DME
PIMOS FIX B42 (AWY-LO) 23,100 ft / 7,041 m 36.15027˚ -4.89346˚ 54 nm 200 nm 178° / 178° -
O GEML APT - 0 ft / 0 m 35.28037˚ -2.95671˚ 107 nm 308 nm 118° / 120° MELILLA

Altitude Profile

Advertisement - Login to hide

Weather


0- 5 10 15 20 25 30 35+ Temperature / ° C

Clouds and Precipitation
Forecast for 2017-12-15 12:00 UTC. Updated an hour ago

Ground ~20,000 ft ~40,000 ft Winds

LEBZ

Details ICAO LEBZ (BJZ)
Name Talavera La Real
Region Spain
Timezone Europe/Madrid (UTC+1.0)
Stats Elevation 609 ft / 186 m (AMSL)
Location 38.891271° -6.821256°
Runways 1
Magnetic Variation 1.619° W

METAR

LEBZ 151200Z 24015KT 9999 FEW014 BKN033 17/14 Q1015

Decode

TAF

TAF LEBZ 151100Z 1512/1612 30008KT 9999 FEW025 TX17/1512Z TN02/1608Z PROB40 TEMPO 1512/1514 24012KT 4000 RA BKN014

Decode

Departure Runways

ID Width Length Bearing (true) Bearing (mag) Surface Threshold Offset Overrun Length
13 197 ft / 60 m 9,350 ft / 2,850 m 125.72° 127.34° Asphalt 0 ft / 0 m 980 ft / 299 m
31 197 ft / 60 m 9,350 ft / 2,850 m 305.74° 307.36° Asphalt 0 ft / 0 m 980 ft / 299 m

GEML

Details ICAO GEML (MLN)
Name MELILLA
Region Ceuta and Melilla
Timezone Africa/Casablanca (UTC+0.0)
Stats Elevation 156 ft / 48 m (AMSL)
Location 35.280374° -2.956708°
Runways 1
Magnetic Variation 0.454° W

METAR

GEML 151200Z 27016G26KT 210V320 9999 FEW015 18/12 Q1016

Decode

TAF

TAF GEML 150800Z 1509/1609 26015KT 9999 SCT030 TX19/1514Z TN13/1607Z TEMPO 1509/1516 27015G28KT TEMPO 1606/1609 4000 RA BKN014

Decode

Destination Runways

ID Width Length Bearing (true) Bearing (mag) Surface Threshold Offset Overrun Length
15 148 ft / 45 m 4,811 ft / 1,466 m 146.39° 146.84° Asphalt 755 ft / 230 m 0 ft / 0 m
33 148 ft / 45 m 4,811 ft / 1,466 m 326.40° 326.85° Asphalt 0 ft / 0 m 0 ft / 0 m

Popular Alternatives